createdAt,value
2017-12-26T00:00:41.717Z,6.00
2017-12-26T00:03:09.440Z,5.90
2017-12-26T00:05:36.353Z,6.00
2017-12-26T00:08:03.273Z,6.00
2017-12-26T00:10:31.944Z,6.00
2017-12-26T00:12:59.066Z,6.00
2017-12-26T00:15:25.984Z,5.90
2017-12-26T00:17:52.910Z,5.90
2017-12-26T00:20:19.819Z,6.00
2017-12-26T00:22:46.757Z,5.90
2017-12-26T00:25:13.684Z,5.80
2017-12-26T00:27:40.613Z,5.90
2017-12-26T00:30:07.516Z,5.90
2017-12-26T00:32:35.204Z,5.80
2017-12-26T00:35:02.125Z,5.80
2017-12-26T00:37:29.840Z,5.80
2017-12-26T00:39:56.762Z,5.80
2017-12-26T00:42:23.689Z,5.80
2017-12-26T00:44:50.612Z,5.70
2017-12-26T00:47:17.597Z,5.80
2017-12-26T00:49:44.509Z,5.80
2017-12-26T00:52:12.201Z,5.80
2017-12-26T00:54:39.132Z,5.80
2017-12-26T00:57:06.067Z,5.80
2017-12-26T00:59:33.745Z,5.90
2017-12-26T01:02:00.668Z,5.80
2017-12-26T01:04:28.352Z,5.80
2017-12-26T01:06:55.272Z,5.80
2017-12-26T01:09:22.949Z,5.80
2017-12-26T01:11:49.863Z,5.70
2017-12-26T01:14:16.769Z,5.80
2017-12-26T01:16:43.705Z,5.80
2017-12-26T01:19:10.622Z,5.70
2017-12-26T01:21:37.570Z,5.80
2017-12-26T01:24:06.445Z,5.90
2017-12-26T01:26:34.136Z,5.80
2017-12-26T01:29:01.044Z,5.80
2017-12-26T01:31:28.731Z,5.80
2017-12-26T01:33:55.641Z,5.80
2017-12-26T01:36:22.584Z,5.90
2017-12-26T01:38:49.496Z,5.90
2017-12-26T01:41:16.416Z,5.90
2017-12-26T01:43:43.321Z,5.90
2017-12-26T01:46:22.864Z,6.00
2017-12-26T01:48:50.550Z,6.00
2017-12-26T01:51:17.484Z,6.00
2017-12-26T01:53:45.200Z,5.90
2017-12-26T01:56:12.128Z,6.00
2017-12-26T01:58:39.033Z,5.90
2017-12-26T02:01:06.809Z,5.90
2017-12-26T02:03:33.715Z,5.90
2017-12-26T02:06:00.635Z,5.90
2017-12-26T02:08:27.565Z,5.90
2017-12-26T02:10:54.497Z,5.90
2017-12-26T02:13:21.401Z,5.90
2017-12-26T02:15:48.329Z,5.90
2017-12-26T02:18:15.240Z,5.90
2017-12-26T02:20:42.156Z,5.90
2017-12-26T02:23:11.999Z,5.90
2017-12-26T02:25:38.908Z,5.90
2017-12-26T02:28:06.577Z,6.00
2017-12-26T02:30:33.496Z,6.00
2017-12-26T02:33:00.426Z,5.90
2017-12-26T02:35:27.345Z,6.00
2017-12-26T02:37:54.250Z,6.00
2017-12-26T02:40:21.945Z,6.00
2017-12-26T02:42:48.855Z,6.00
2017-12-26T02:45:16.533Z,6.00
2017-12-26T02:47:43.457Z,6.00
2017-12-26T02:50:10.385Z,6.00
2017-12-26T02:52:37.302Z,6.00
2017-12-26T02:55:04.229Z,6.00
2017-12-26T02:57:31.139Z,6.00
2017-12-26T02:59:58.054Z,6.10
2017-12-26T03:02:25.726Z,6.00
2017-12-26T03:04:52.646Z,6.00
2017-12-26T03:07:19.554Z,6.10
2017-12-26T03:09:46.468Z,6.10
2017-12-26T03:12:14.137Z,6.00
2017-12-26T03:14:41.057Z,6.00
2017-12-26T03:17:07.960Z,6.00
2017-12-26T03:19:35.643Z,6.10
2017-12-26T03:22:02.549Z,6.00
2017-12-26T03:24:30.228Z,6.10
2017-12-26T03:26:57.900Z,6.10
2017-12-26T03:29:24.817Z,6.10
2017-12-26T03:31:51.713Z,6.10
2017-12-26T03:34:18.629Z,6.10
2017-12-26T03:36:46.297Z,6.10
2017-12-26T03:39:13.985Z,6.10
2017-12-26T03:41:40.894Z,6.10
2017-12-26T03:44:07.824Z,6.10
2017-12-26T03:46:34.732Z,6.10
2017-12-26T03:49:02.420Z,6.00
2017-12-26T03:51:30.113Z,6.10
2017-12-26T03:53:57.032Z,6.10
2017-12-26T03:56:24.696Z,6.20
2017-12-26T03:58:51.617Z,6.10
2017-12-26T04:01:18.525Z,6.20
2017-12-26T04:03:45.452Z,6.20
2017-12-26T04:06:12.364Z,6.20
2017-12-26T04:08:39.284Z,6.20
2017-12-26T04:11:06.188Z,6.20
2017-12-26T04:13:33.103Z,6.10
2017-12-26T04:16:00.008Z,6.10
2017-12-26T04:18:26.917Z,6.10
2017-12-26T04:20:53.833Z,6.10
2017-12-26T04:23:20.757Z,6.10
2017-12-26T04:25:47.665Z,6.10
2017-12-26T04:28:14.565Z,6.10
2017-12-26T04:30:41.491Z,6.00
2017-12-26T04:33:08.399Z,6.00
2017-12-26T04:35:35.354Z,6.00
2017-12-26T04:38:02.272Z,6.00
2017-12-26T04:40:29.188Z,6.00
2017-12-26T04:42:56.089Z,6.00
2017-12-26T04:45:23.000Z,6.00
2017-12-26T04:47:49.918Z,6.00
2017-12-26T04:50:17.600Z,5.90
2017-12-26T04:52:45.288Z,5.90
2017-12-26T04:55:12.210Z,5.90
2017-12-26T04:57:40.916Z,5.90
2017-12-26T05:00:07.836Z,5.90
2017-12-26T05:02:35.524Z,5.90
2017-12-26T05:05:02.430Z,5.90
2017-12-26T05:07:30.105Z,5.70
2017-12-26T05:09:57.029Z,5.70
2017-12-26T05:12:23.937Z,5.60
2017-12-26T05:14:50.861Z,5.60
2017-12-26T05:17:17.770Z,5.60
2017-12-26T05:19:44.685Z,5.70
2017-12-26T05:22:12.361Z,5.60
2017-12-26T05:24:39.615Z,5.50
2017-12-26T05:27:06.520Z,5.50
2017-12-26T05:29:33.433Z,5.40
2017-12-26T05:32:01.097Z,5.20
2017-12-26T05:34:28.781Z,5.20
2017-12-26T05:36:55.684Z,5.10
2017-12-26T05:39:22.596Z,5.20
2017-12-26T05:41:49.504Z,5.10
2017-12-26T05:44:16.415Z,5.10
2017-12-26T05:46:43.332Z,5.00
2017-12-26T05:49:10.248Z,5.00
2017-12-26T05:51:37.147Z,5.00
2017-12-26T05:54:04.830Z,4.90
2017-12-26T05:56:31.732Z,4.90
2017-12-26T05:58:58.645Z,4.80
2017-12-26T06:01:26.312Z,4.90
2017-12-26T06:03:53.232Z,4.90
2017-12-26T06:06:20.905Z,5.00
2017-12-26T06:08:47.860Z,4.90
2017-12-26T06:11:14.776Z,5.00
2017-12-26T06:13:42.456Z,5.10
2017-12-26T06:16:09.365Z,5.10
2017-12-26T06:18:36.296Z,5.10
2017-12-26T06:21:03.197Z,5.10
2017-12-26T06:23:30.117Z,5.00
2017-12-26T06:25:57.803Z,4.90
2017-12-26T06:28:24.721Z,4.90
2017-12-26T06:30:51.620Z,4.80
2017-12-26T06:33:18.549Z,4.80
2017-12-26T06:35:45.452Z,4.70
2017-12-26T06:38:12.369Z,4.70
2017-12-26T06:40:40.044Z,4.70
2017-12-26T06:43:06.960Z,4.70
2017-12-26T06:45:33.865Z,4.70
2017-12-26T06:48:00.776Z,4.60
2017-12-26T06:50:27.684Z,4.60
2017-12-26T06:52:54.600Z,4.60
2017-12-26T06:55:21.500Z,4.60
2017-12-26T06:57:48.432Z,4.70
2017-12-26T07:00:16.101Z,4.70
2017-12-26T07:02:43.793Z,4.70
2017-12-26T07:05:10.697Z,4.70
2017-12-26T07:07:38.623Z,4.80
2017-12-26T07:10:06.296Z,4.70
2017-12-26T07:12:33.215Z,4.70
2017-12-26T07:15:00.116Z,4.70
2017-12-26T07:17:27.053Z,4.70
2017-12-26T07:19:53.955Z,4.70
2017-12-26T07:22:20.874Z,4.70
2017-12-26T07:24:47.776Z,4.80
2017-12-26T07:27:14.688Z,4.90
2017-12-26T07:29:41.587Z,5.00
2017-12-26T07:32:08.504Z,5.10
2017-12-26T07:34:36.168Z,5.30
2017-12-26T07:37:03.088Z,5.30
2017-12-26T07:39:29.992Z,5.30
2017-12-26T07:41:56.907Z,5.50
2017-12-26T07:44:23.807Z,5.50
2017-12-26T07:46:50.771Z,5.60
2017-12-26T07:49:17.644Z,5.60
2017-12-26T07:51:44.560Z,5.70
2017-12-26T07:54:12.237Z,5.70
2017-12-26T07:56:39.920Z,5.70
2017-12-26T07:59:06.829Z,5.70
2017-12-26T08:01:34.512Z,5.70
2017-12-26T08:04:01.435Z,5.70
2017-12-26T08:06:29.123Z,5.70
2017-12-26T08:08:56.024Z,5.70
2017-12-26T08:11:22.949Z,5.70
2017-12-26T08:13:49.869Z,5.70
2017-12-26T08:16:16.784Z,5.70
2017-12-26T08:18:43.688Z,5.70
2017-12-26T08:21:10.611Z,5.70
2017-12-26T08:23:37.541Z,5.70
2017-12-26T08:26:05.230Z,5.90
2017-12-26T08:28:32.150Z,5.90
2017-12-26T08:30:59.114Z,6.00
2017-12-26T08:33:26.024Z,6.10
2017-12-26T08:35:52.973Z,6.10
2017-12-26T08:38:19.896Z,6.30
2017-12-26T08:40:46.818Z,6.30
2017-12-26T08:43:13.730Z,6.30
2017-12-26T08:45:41.422Z,6.40
2017-12-26T08:48:08.329Z,6.50
2017-12-26T08:50:35.252Z,6.50
2017-12-26T08:53:02.164Z,6.50
2017-12-26T08:55:29.852Z,6.60
2017-12-26T08:57:56.757Z,6.60
2017-12-26T09:00:24.473Z,6.70
2017-12-26T09:02:51.379Z,6.70
2017-12-26T09:05:18.304Z,6.70
2017-12-26T09:07:45.212Z,6.70
2017-12-26T09:10:12.132Z,6.80
2017-12-26T09:12:39.804Z,6.80
2017-12-26T09:15:07.493Z,6.80
2017-12-26T09:17:34.405Z,6.80
2017-12-26T09:20:02.088Z,6.70
2017-12-26T09:22:29.003Z,6.70
2017-12-26T09:24:55.925Z,6.70
2017-12-26T09:27:22.848Z,6.70
2017-12-26T09:29:49.763Z,6.70
2017-12-26T09:32:16.669Z,6.70
2017-12-26T09:34:43.592Z,6.70
2017-12-26T09:37:10.495Z,6.80
2017-12-26T09:39:37.414Z,6.90
2017-12-26T09:42:04.365Z,6.90
2017-12-26T09:44:35.301Z,6.80
2017-12-26T09:47:02.217Z,6.90
2017-12-26T09:49:29.157Z,7.00
2017-12-26T09:51:56.075Z,7.00
2017-12-26T09:54:23.001Z,7.00
2017-12-26T09:56:49.913Z,7.00
2017-12-26T09:59:17.609Z,7.00
2017-12-26T10:01:44.543Z,7.00
2017-12-26T10:04:11.461Z,7.00
2017-12-26T10:06:39.145Z,6.90
2017-12-26T10:09:06.048Z,6.90
2017-12-26T10:11:33.017Z,6.80
2017-12-26T10:13:59.932Z,6.60
2017-12-26T10:16:26.827Z,6.60
2017-12-26T10:18:53.756Z,6.70
2017-12-26T10:21:20.660Z,6.80
2017-12-26T10:23:47.572Z,6.90
2017-12-26T10:26:14.477Z,7.00
2017-12-26T10:28:42.161Z,7.10
2017-12-26T10:31:09.064Z,7.00
2017-12-26T10:33:36.008Z,7.10
2017-12-26T10:36:02.918Z,7.00
2017-12-26T10:38:29.846Z,7.00
2017-12-26T10:40:56.781Z,7.00
2017-12-26T10:43:23.697Z,7.00
2017-12-26T10:45:51.378Z,7.00
2017-12-26T10:48:18.307Z,7.00
2017-12-26T10:50:45.998Z,7.00
2017-12-26T10:53:12.929Z,7.00
2017-12-26T10:55:39.837Z,7.00
2017-12-26T10:58:06.769Z,7.00
2017-12-26T11:00:34.677Z,7.00
2017-12-26T11:03:02.365Z,7.00
2017-12-26T11:05:29.277Z,7.00
2017-12-26T11:07:56.961Z,6.90
2017-12-26T11:10:23.997Z,6.90
2017-12-26T11:12:50.919Z,6.70
2017-12-26T11:15:18.594Z,6.60
2017-12-26T11:17:46.282Z,6.70
2017-12-26T11:20:13.187Z,6.70
2017-12-26T11:22:40.913Z,6.60
2017-12-26T11:25:07.841Z,6.50
2017-12-26T11:27:35.099Z,6.60
2017-12-26T11:30:02.030Z,6.70
2017-12-26T11:32:28.989Z,6.60
2017-12-26T11:34:55.898Z,6.60
2017-12-26T11:37:23.603Z,6.70
2017-12-26T11:39:50.521Z,6.70
2017-12-26T11:42:17.441Z,6.70
2017-12-26T11:44:44.385Z,6.80
2017-12-26T11:47:12.090Z,6.80
2017-12-26T11:49:39.008Z,6.70
2017-12-26T11:52:05.962Z,6.80
2017-12-26T11:54:32.879Z,6.80
2017-12-26T11:57:00.641Z,6.80
2017-12-26T11:59:28.337Z,6.80
2017-12-26T12:01:55.257Z,6.80
2017-12-26T12:04:22.946Z,6.80
2017-12-26T12:06:49.872Z,6.80
2017-12-26T12:09:16.777Z,6.80
2017-12-26T12:11:43.703Z,6.70
2017-12-26T12:14:10.605Z,6.80
2017-12-26T12:16:37.669Z,6.70
2017-12-26T12:19:04.573Z,6.70
2017-12-26T12:21:31.484Z,6.70
2017-12-26T12:23:58.400Z,6.70
2017-12-26T12:26:26.085Z,6.80
2017-12-26T12:28:53.001Z,6.80
2017-12-26T12:31:20.725Z,6.90
2017-12-26T12:33:47.652Z,6.90
2017-12-26T12:36:15.347Z,6.90
2017-12-26T12:38:42.295Z,6.90
2017-12-26T12:41:09.206Z,6.70
2017-12-26T12:43:36.141Z,6.70
2017-12-26T12:46:03.048Z,6.70
2017-12-26T12:48:29.977Z,6.80
2017-12-26T12:50:56.885Z,6.80
2017-12-26T12:53:23.829Z,6.80
2017-12-26T12:55:50.744Z,6.70
2017-12-26T12:58:17.678Z,6.80
2017-12-26T13:00:44.590Z,6.80
2017-12-26T13:03:11.513Z,6.80
2017-12-26T13:05:38.421Z,6.80
2017-12-26T13:08:05.346Z,6.80
2017-12-26T13:10:32.260Z,6.70
2017-12-26T13:12:59.188Z,6.70
2017-12-26T13:15:26.120Z,6.70
2017-12-26T13:17:53.825Z,6.60
2017-12-26T13:20:20.783Z,6.70
2017-12-26T13:22:47.673Z,6.60
2017-12-26T13:25:14.613Z,6.60
2017-12-26T13:27:41.513Z,6.60
2017-12-26T13:30:09.199Z,6.70
2017-12-26T13:32:36.113Z,6.60
2017-12-26T13:35:03.821Z,6.70
2017-12-26T13:37:30.727Z,6.70
2017-12-26T13:39:57.645Z,6.60
2017-12-26T13:42:24.566Z,6.70
2017-12-26T13:44:52.411Z,6.60
2017-12-26T13:47:20.082Z,6.60
2017-12-26T13:49:47.772Z,6.60
2017-12-26T13:52:14.681Z,6.50
2017-12-26T13:54:42.360Z,6.50
2017-12-26T13:57:10.029Z,6.50
2017-12-26T13:59:37.712Z,6.60
2017-12-26T14:02:04.625Z,6.60
2017-12-26T14:04:32.333Z,6.50
2017-12-26T14:06:59.249Z,6.50
2017-12-26T14:09:26.169Z,6.40
2017-12-26T14:11:53.085Z,6.40
2017-12-26T14:14:20.029Z,6.40
2017-12-26T14:16:47.732Z,6.30
2017-12-26T14:19:15.421Z,6.30
2017-12-26T14:21:42.328Z,6.20
2017-12-26T14:24:09.244Z,6.20
2017-12-26T14:26:36.172Z,6.20
2017-12-26T14:29:03.098Z,6.10
2017-12-26T14:31:30.773Z,6.00
2017-12-26T14:33:58.466Z,5.90
2017-12-26T14:36:25.386Z,5.90
2017-12-26T14:38:52.308Z,5.90
2017-12-26T14:41:19.981Z,5.90
2017-12-26T14:43:46.930Z,5.80
2017-12-26T14:46:13.826Z,5.80
2017-12-26T14:48:40.753Z,5.80
2017-12-26T14:51:08.429Z,5.90
2017-12-26T14:53:35.348Z,5.90
2017-12-26T14:56:02.257Z,5.80
2017-12-26T14:58:29.177Z,5.90
2017-12-26T15:00:56.081Z,6.10
2017-12-26T15:03:23.000Z,6.10
2017-12-26T15:05:49.905Z,6.00
2017-12-26T15:08:16.825Z,6.00
2017-12-26T15:10:43.731Z,6.00
2017-12-26T15:13:10.657Z,6.00
2017-12-26T15:15:38.321Z,6.00
2017-12-26T15:18:06.026Z,5.90
2017-12-26T15:20:32.927Z,5.90
2017-12-26T15:22:59.846Z,5.90
2017-12-26T15:25:26.747Z,5.90
2017-12-26T15:27:53.656Z,5.80
2017-12-26T15:30:20.556Z,5.90
2017-12-26T15:32:47.477Z,5.90
2017-12-26T15:35:14.381Z,5.80
2017-12-26T15:37:41.300Z,5.80
2017-12-26T15:40:08.200Z,5.80
2017-12-26T15:42:35.121Z,5.80
2017-12-26T15:45:02.032Z,5.80
2017-12-26T15:47:28.948Z,5.70
2017-12-26T15:49:55.850Z,5.70
2017-12-26T15:52:22.784Z,5.60
2017-12-26T15:54:49.696Z,5.60
2017-12-26T15:57:17.383Z,5.50
2017-12-26T15:59:44.300Z,5.50
2017-12-26T16:02:12.000Z,5.40
2017-12-26T16:04:38.905Z,5.30
2017-12-26T16:07:06.600Z,5.30
2017-12-26T16:09:33.509Z,5.30
2017-12-26T16:12:01.213Z,5.30
2017-12-26T16:14:28.127Z,5.30
2017-12-26T16:16:55.065Z,5.30
2017-12-26T16:19:22.787Z,5.30
2017-12-26T16:21:49.704Z,5.30
2017-12-26T16:24:16.613Z,5.40
2017-12-26T16:26:43.541Z,5.40
2017-12-26T16:29:10.440Z,5.40
2017-12-26T16:31:37.355Z,5.40
2017-12-26T16:34:04.248Z,5.40
2017-12-26T16:36:31.187Z,5.50
2017-12-26T16:38:58.083Z,5.50
2017-12-26T16:41:25.028Z,5.60
2017-12-26T16:43:52.700Z,5.70
2017-12-26T16:46:19.664Z,5.60
2017-12-26T16:48:47.314Z,5.60
2017-12-26T16:51:14.276Z,5.60
2017-12-26T16:53:41.183Z,5.60
2017-12-26T16:56:08.853Z,5.40
2017-12-26T16:58:35.776Z,5.40
2017-12-26T17:01:03.473Z,5.40
2017-12-26T17:03:30.392Z,5.30
2017-12-26T17:05:58.077Z,5.30
2017-12-26T17:08:24.991Z,5.20
2017-12-26T17:10:53.892Z,5.30
2017-12-26T17:13:20.800Z,5.20
2017-12-26T17:15:47.745Z,5.20
2017-12-26T17:18:14.652Z,5.10
2017-12-26T17:20:41.552Z,5.00
2017-12-26T17:23:09.256Z,5.10
2017-12-26T17:25:36.175Z,5.00
2017-12-26T17:28:03.844Z,5.20
2017-12-26T17:30:30.741Z,5.20
2017-12-26T17:32:57.668Z,5.30
2017-12-26T17:35:24.564Z,5.20
2017-12-26T17:37:51.496Z,5.30
2017-12-26T17:40:18.397Z,5.30
2017-12-26T17:42:45.321Z,5.20
2017-12-26T17:45:12.260Z,5.20
2017-12-26T17:47:39.183Z,5.10
2017-12-26T17:50:07.776Z,5.00
2017-12-26T17:52:35.473Z,5.10
2017-12-26T17:55:02.377Z,5.00
2017-12-26T17:57:29.298Z,5.00
2017-12-26T17:59:56.200Z,5.10
2017-12-26T18:02:23.112Z,5.10
2017-12-26T18:04:50.009Z,5.00
2017-12-26T18:07:16.944Z,5.00
2017-12-26T18:09:45.613Z,5.20
2017-12-26T18:12:12.556Z,5.20
2017-12-26T18:14:39.456Z,5.30
2017-12-26T18:17:06.379Z,5.40
2017-12-26T18:19:33.292Z,5.40
2017-12-26T18:22:00.219Z,5.40
2017-12-26T18:24:27.134Z,5.50
2017-12-26T18:26:54.045Z,5.60
2017-12-26T18:29:21.733Z,5.60
2017-12-26T18:31:48.665Z,5.50
2017-12-26T18:34:15.594Z,5.60
2017-12-26T18:36:43.276Z,5.70
2017-12-26T18:39:10.196Z,5.70
2017-12-26T18:41:37.119Z,5.70
2017-12-26T18:44:04.021Z,5.80
2017-12-26T18:46:30.943Z,5.80
2017-12-26T18:48:57.844Z,5.70
2017-12-26T18:51:24.773Z,5.80
2017-12-26T18:53:51.691Z,5.80
2017-12-26T18:56:18.609Z,5.80
2017-12-26T18:58:45.519Z,5.80
2017-12-26T19:01:12.446Z,5.80
2017-12-26T19:03:39.344Z,5.80
2017-12-26T19:06:06.267Z,5.80
2017-12-26T19:08:33.187Z,5.80
2017-12-26T19:11:00.100Z,5.90
2017-12-26T19:13:27.028Z,5.80
2017-12-26T19:15:53.940Z,5.80
2017-12-26T19:18:20.862Z,5.80
2017-12-26T19:20:47.785Z,5.80
2017-12-26T19:23:14.703Z,5.90
2017-12-26T19:25:41.640Z,5.80
2017-12-26T19:28:08.552Z,5.80
2017-12-26T19:30:35.487Z,5.90
2017-12-26T19:33:03.945Z,5.90
2017-12-26T19:35:30.869Z,5.90
2017-12-26T19:37:58.708Z,5.90
2017-12-26T19:40:26.391Z,6.10
2017-12-26T19:42:53.296Z,6.10
2017-12-26T19:45:20.232Z,6.40
2017-12-26T19:47:47.151Z,6.30
2017-12-26T19:50:14.091Z,6.10
2017-12-26T19:52:41.042Z,6.10
2017-12-26T19:55:07.931Z,6.00
2017-12-26T19:57:35.617Z,5.90
2017-12-26T20:00:02.552Z,5.90
2017-12-26T20:02:30.224Z,6.00
2017-12-26T20:04:57.183Z,6.00
2017-12-26T20:07:24.099Z,6.00
2017-12-26T20:09:51.024Z,5.90
2017-12-26T20:12:17.934Z,6.00
2017-12-26T20:14:44.852Z,6.00
2017-12-26T20:17:11.756Z,6.00
2017-12-26T20:19:38.671Z,5.90
2017-12-26T20:22:05.572Z,6.00
2017-12-26T20:24:32.487Z,5.80
2017-12-26T20:26:59.384Z,5.80
2017-12-26T20:29:26.312Z,5.80
2017-12-26T20:31:53.289Z,5.80
2017-12-26T20:34:20.255Z,5.80
2017-12-26T20:36:47.217Z,5.80
2017-12-26T20:39:14.887Z,5.90
2017-12-26T20:41:42.554Z,5.90
2017-12-26T20:44:13.617Z,5.80
2017-12-26T20:46:40.528Z,5.80
2017-12-26T20:49:08.210Z,5.80
2017-12-26T20:51:35.120Z,5.80
2017-12-26T20:54:02.017Z,5.80
2017-12-26T20:56:28.936Z,5.70
2017-12-26T20:58:56.612Z,5.80
2017-12-26T21:01:23.556Z,5.70
2017-12-26T21:03:50.466Z,5.80
2017-12-26T21:06:17.388Z,5.70
2017-12-26T21:08:44.297Z,5.70
2017-12-26T21:11:11.224Z,5.70
2017-12-26T21:13:38.124Z,5.70
2017-12-26T21:16:05.042Z,5.70
2017-12-26T21:18:31.941Z,5.60
2017-12-26T21:20:59.632Z,5.60
2017-12-26T21:23:26.541Z,5.60
2017-12-26T21:25:53.464Z,5.70
2017-12-26T21:28:20.376Z,5.60
2017-12-26T21:30:47.316Z,5.60
2017-12-26T21:33:14.231Z,5.50
2017-12-26T21:35:41.918Z,5.50
2017-12-26T21:38:09.744Z,5.50
2017-12-26T21:40:39.406Z,5.40
2017-12-26T21:43:12.351Z,5.40
2017-12-26T21:45:44.056Z,5.50
2017-12-26T21:48:15.832Z,5.50
2017-12-26T21:50:45.977Z,5.50
2017-12-26T21:53:19.728Z,5.40
2017-12-26T21:55:46.964Z,5.40
2017-12-26T21:58:15.983Z,5.40
2017-12-26T22:00:42.904Z,5.40
2017-12-26T22:03:09.817Z,5.50
2017-12-26T22:05:37.505Z,5.50
2017-12-26T22:08:04.410Z,5.50
2017-12-26T22:10:31.372Z,5.50
2017-12-26T22:12:59.059Z,5.50
2017-12-26T22:15:28.041Z,5.50
2017-12-26T22:17:54.973Z,5.50
2017-12-26T22:20:21.920Z,5.40
2017-12-26T22:22:49.592Z,5.30
2017-12-26T22:25:18.859Z,5.30
2017-12-26T22:27:50.161Z,5.30
2017-12-26T22:30:17.116Z,5.30
2017-12-26T22:32:44.098Z,5.40
2017-12-26T22:35:11.042Z,5.20
2017-12-26T22:37:38.181Z,5.20
2017-12-26T22:40:09.599Z,5.20
2017-12-26T22:42:39.291Z,5.10
2017-12-26T22:45:09.768Z,5.10
2017-12-26T22:47:37.457Z,5.00
2017-12-26T22:50:05.146Z,5.00
2017-12-26T22:52:32.063Z,5.00
2017-12-26T22:54:59.751Z,5.10
2017-12-26T22:57:26.677Z,5.00
2017-12-26T22:59:53.608Z,5.10
2017-12-26T23:02:21.280Z,5.10
2017-12-26T23:04:48.209Z,5.10
2017-12-26T23:07:19.413Z,5.20
2017-12-26T23:09:46.358Z,5.10
2017-12-26T23:12:13.280Z,5.20
2017-12-26T23:14:40.200Z,5.10
2017-12-26T23:17:07.108Z,5.20
2017-12-26T23:19:34.049Z,5.20
2017-12-26T23:22:01.484Z,5.10
2017-12-26T23:24:28.402Z,5.10
2017-12-26T23:26:56.175Z,5.00
2017-12-26T23:29:23.127Z,5.00
2017-12-26T23:31:50.032Z,5.00
2017-12-26T23:34:17.702Z,4.80
2017-12-26T23:36:45.395Z,4.80
2017-12-26T23:39:12.332Z,4.70
2017-12-26T23:41:39.269Z,4.60
2017-12-26T23:44:06.195Z,4.60
2017-12-26T23:46:33.900Z,4.50
2017-12-26T23:49:00.809Z,4.40
2017-12-26T23:51:27.732Z,4.40
2017-12-26T23:53:54.671Z,4.30
2017-12-26T23:56:21.588Z,4.20
2017-12-26T23:58:48.501Z,4.20
